sensor_id;sensor_type;location;lat;lon;timestamp;P1;durP1;ratioP1;P2;durP2;ratioP2
78382;SDS011;67668;52.294;4.692;2023-07-08T00:01:54;3.60;;;1.65;;
78382;SDS011;67668;52.294;4.692;2023-07-08T00:04:19;5.18;;;1.63;;
78382;SDS011;67668;52.294;4.692;2023-07-08T00:06:45;4.45;;;1.83;;
78382;SDS011;67668;52.294;4.692;2023-07-08T00:09:12;3.33;;;1.92;;
78382;SDS011;67668;52.294;4.692;2023-07-08T00:11:37;3.80;;;1.75;;
78382;SDS011;67668;52.294;4.692;2023-07-08T00:14:03;5.35;;;1.92;;
78382;SDS011;67668;52.294;4.692;2023-07-08T00:16:28;4.40;;;2.17;;
78382;SDS011;67668;52.294;4.692;2023-07-08T00:18:54;6.50;;;2.08;;
78382;SDS011;67668;52.294;4.692;2023-07-08T00:21:19;3.93;;;2.13;;
78382;SDS011;67668;52.294;4.692;2023-07-08T00:23:45;7.68;;;2.70;;
78382;SDS011;67668;52.294;4.692;2023-07-08T00:26:26;8.18;;;2.80;;
78382;SDS011;67668;52.294;4.692;2023-07-08T00:28:54;5.80;;;2.25;;
78382;SDS011;67668;52.294;4.692;2023-07-08T00:31:21;5.70;;;1.85;;
78382;SDS011;67668;52.294;4.692;2023-07-08T00:33:52;6.03;;;2.10;;
78382;SDS011;67668;52.294;4.692;2023-07-08T00:36:20;5.22;;;2.10;;
78382;SDS011;67668;52.294;4.692;2023-07-08T00:38:46;6.57;;;2.40;;
78382;SDS011;67668;52.294;4.692;2023-07-08T00:44:07;4.95;;;2.20;;
78382;SDS011;67668;52.294;4.692;2023-07-08T00:54:56;6.10;;;2.45;;
78382;SDS011;67668;52.294;4.692;2023-07-08T00:57:26;4.25;;;1.75;;
78382;SDS011;67668;52.294;4.692;2023-07-08T01:00:17;6.40;;;1.75;;
78382;SDS011;67668;52.294;4.692;2023-07-08T01:02:44;4.32;;;2.25;;
78382;SDS011;67668;52.294;4.692;2023-07-08T01:05:20;4.75;;;2.40;;
78382;SDS011;67668;52.294;4.692;2023-07-08T01:07:50;3.83;;;2.05;;
78382;SDS011;67668;52.294;4.692;2023-07-08T01:10:20;4.22;;;2.10;;
78382;SDS011;67668;52.294;4.692;2023-07-08T01:12:52;4.82;;;2.38;;
78382;SDS011;67668;52.294;4.692;2023-07-08T01:15:23;6.90;;;2.00;;
78382;SDS011;67668;52.294;4.692;2023-07-08T01:17:55;3.38;;;1.83;;
78382;SDS011;67668;52.294;4.692;2023-07-08T01:20:20;4.03;;;2.00;;
78382;SDS011;67668;52.294;4.692;2023-07-08T01:22:46;5.75;;;2.40;;
78382;SDS011;67668;52.294;4.692;2023-07-08T01:25:12;5.25;;;2.35;;
78382;SDS011;67668;52.294;4.692;2023-07-08T01:27:41;5.60;;;2.00;;
78382;SDS011;67668;52.294;4.692;2023-07-08T01:30:11;5.57;;;2.10;;
78382;SDS011;67668;52.294;4.692;2023-07-08T01:32:39;3.60;;;1.92;;
78382;SDS011;67668;52.294;4.692;2023-07-08T01:35:08;4.63;;;2.20;;
78382;SDS011;67668;52.294;4.692;2023-07-08T01:37:39;3.40;;;1.80;;
78382;SDS011;67668;52.294;4.692;2023-07-08T01:40:27;3.85;;;2.08;;
78382;SDS011;67668;52.294;4.692;2023-07-08T01:42:57;3.58;;;1.98;;
78382;SDS011;67668;52.294;4.692;2023-07-08T01:45:25;4.15;;;2.10;;
78382;SDS011;67668;52.294;4.692;2023-07-08T01:48:00;3.97;;;1.88;;
78382;SDS011;67668;52.294;4.692;2023-07-08T01:50:29;4.75;;;1.85;;
78382;SDS011;67668;52.294;4.692;2023-07-08T01:52:58;3.13;;;1.98;;
78382;SDS011;67668;52.294;4.692;2023-07-08T01:55:25;6.70;;;2.05;;
78382;SDS011;67668;52.294;4.692;2023-07-08T01:57:53;5.93;;;2.22;;
78382;SDS011;67668;52.294;4.692;2023-07-08T02:00:20;3.95;;;2.20;;
78382;SDS011;67668;52.294;4.692;2023-07-08T02:02:45;2.55;;;1.60;;
78382;SDS011;67668;52.294;4.692;2023-07-08T02:05:11;5.03;;;2.45;;
78382;SDS011;67668;52.294;4.692;2023-07-08T02:07:37;4.57;;;2.28;;
78382;SDS011;67668;52.294;4.692;2023-07-08T02:10:04;4.00;;;1.65;;
78382;SDS011;67668;52.294;4.692;2023-07-08T02:12:30;2.97;;;1.75;;
78382;SDS011;67668;52.294;4.692;2023-07-08T02:14:55;4.80;;;2.03;;
78382;SDS011;67668;52.294;4.692;2023-07-08T02:17:21;5.07;;;2.33;;
78382;SDS011;67668;52.294;4.692;2023-07-08T02:19:46;3.47;;;2.10;;
78382;SDS011;67668;52.294;4.692;2023-07-08T02:22:11;3.13;;;1.63;;
78382;SDS011;67668;52.294;4.692;2023-07-08T02:24:37;3.65;;;1.98;;
78382;SDS011;67668;52.294;4.692;2023-07-08T02:27:02;10.15;;;2.13;;
78382;SDS011;67668;52.294;4.692;2023-07-08T02:29:28;4.90;;;2.22;;
78382;SDS011;67668;52.294;4.692;2023-07-08T02:31:53;3.95;;;1.83;;
78382;SDS011;67668;52.294;4.692;2023-07-08T02:34:19;4.32;;;2.08;;
78382;SDS011;67668;52.294;4.692;2023-07-08T02:36:44;3.80;;;1.83;;
78382;SDS011;67668;52.294;4.692;2023-07-08T02:39:10;4.53;;;1.92;;
78382;SDS011;67668;52.294;4.692;2023-07-08T02:41:36;3.83;;;2.33;;
78382;SDS011;67668;52.294;4.692;2023-07-08T02:44:01;3.78;;;2.20;;
78382;SDS011;67668;52.294;4.692;2023-07-08T02:46:27;3.60;;;2.10;;
78382;SDS011;67668;52.294;4.692;2023-07-08T02:48:52;3.08;;;2.00;;
78382;SDS011;67668;52.294;4.692;2023-07-08T02:51:18;3.88;;;1.88;;
78382;SDS011;67668;52.294;4.692;2023-07-08T02:53:43;4.97;;;2.38;;
78382;SDS011;67668;52.294;4.692;2023-07-08T02:56:08;5.68;;;2.20;;
78382;SDS011;67668;52.294;4.692;2023-07-08T02:58:34;3.43;;;2.03;;
78382;SDS011;67668;52.294;4.692;2023-07-08T03:01:00;2.42;;;1.65;;
78382;SDS011;67668;52.294;4.692;2023-07-08T03:03:26;4.05;;;1.85;;
78382;SDS011;67668;52.294;4.692;2023-07-08T03:05:55;3.38;;;1.98;;
78382;SDS011;67668;52.294;4.692;2023-07-08T03:08:24;6.32;;;1.92;;
78382;SDS011;67668;52.294;4.692;2023-07-08T03:10:54;5.07;;;2.15;;
78382;SDS011;67668;52.294;4.692;2023-07-08T03:13:21;4.43;;;2.08;;
78382;SDS011;67668;52.294;4.692;2023-07-08T03:15:46;4.72;;;2.13;;
78382;SDS011;67668;52.294;4.692;2023-07-08T03:18:12;4.43;;;2.42;;
78382;SDS011;67668;52.294;4.692;2023-07-08T03:20:39;3.55;;;2.42;;
78382;SDS011;67668;52.294;4.692;2023-07-08T03:23:05;2.22;;;1.60;;
78382;SDS011;67668;52.294;4.692;2023-07-08T03:25:30;6.30;;;2.45;;
78382;SDS011;67668;52.294;4.692;2023-07-08T03:27:56;3.77;;;2.03;;
78382;SDS011;67668;52.294;4.692;2023-07-08T03:30:22;4.43;;;2.55;;
78382;SDS011;67668;52.294;4.692;2023-07-08T03:32:48;5.70;;;2.25;;
78382;SDS011;67668;52.294;4.692;2023-07-08T03:35:14;5.13;;;2.13;;
78382;SDS011;67668;52.294;4.692;2023-07-08T03:37:39;4.05;;;2.20;;
78382;SDS011;67668;52.294;4.692;2023-07-08T03:40:05;4.88;;;2.65;;
78382;SDS011;67668;52.294;4.692;2023-07-08T03:42:34;4.07;;;2.40;;
78382;SDS011;67668;52.294;4.692;2023-07-08T03:45:00;4.63;;;2.27;;
78382;SDS011;67668;52.294;4.692;2023-07-08T03:47:25;4.67;;;2.20;;
78382;SDS011;67668;52.294;4.692;2023-07-08T03:49:50;6.82;;;2.40;;
78382;SDS011;67668;52.294;4.692;2023-07-08T03:52:16;5.30;;;2.10;;
78382;SDS011;67668;52.294;4.692;2023-07-08T03:54:42;7.05;;;1.70;;
78382;SDS011;67668;52.294;4.692;2023-07-08T03:57:07;5.45;;;1.95;;
78382;SDS011;67668;52.294;4.692;2023-07-08T03:59:33;5.40;;;2.55;;
78382;SDS011;67668;52.294;4.692;2023-07-08T04:01:58;4.30;;;1.77;;
78382;SDS011;67668;52.294;4.692;2023-07-08T04:04:24;5.57;;;2.33;;
78382;SDS011;67668;52.294;4.692;2023-07-08T04:06:56;4.85;;;2.03;;
78382;SDS011;67668;52.294;4.692;2023-07-08T04:09:21;4.40;;;2.35;;
78382;SDS011;67668;52.294;4.692;2023-07-08T04:11:47;3.60;;;2.22;;
78382;SDS011;67668;52.294;4.692;2023-07-08T04:14:12;4.13;;;2.17;;
78382;SDS011;67668;52.294;4.692;2023-07-08T04:16:59;5.38;;;2.55;;
78382;SDS011;67668;52.294;4.692;2023-07-08T04:19:24;5.82;;;2.40;;
78382;SDS011;67668;52.294;4.692;2023-07-08T04:21:52;8.77;;;2.22;;
78382;SDS011;67668;52.294;4.692;2023-07-08T04:24:18;4.05;;;2.35;;
78382;SDS011;67668;52.294;4.692;2023-07-08T04:26:43;4.72;;;2.03;;
78382;SDS011;67668;52.294;4.692;2023-07-08T04:29:16;4.72;;;2.13;;
78382;SDS011;67668;52.294;4.692;2023-07-08T04:31:43;3.97;;;1.73;;
78382;SDS011;67668;52.294;4.692;2023-07-08T04:34:09;5.82;;;1.90;;
78382;SDS011;67668;52.294;4.692;2023-07-08T04:36:35;5.32;;;1.83;;
78382;SDS011;67668;52.294;4.692;2023-07-08T04:39:01;4.60;;;2.08;;
78382;SDS011;67668;52.294;4.692;2023-07-08T04:41:30;4.03;;;1.65;;
78382;SDS011;67668;52.294;4.692;2023-07-08T04:43:56;3.45;;;1.95;;
78382;SDS011;67668;52.294;4.692;2023-07-08T04:46:29;4.53;;;2.80;;
78382;SDS011;67668;52.294;4.692;2023-07-08T04:49:08;3.88;;;1.83;;
78382;SDS011;67668;52.294;4.692;2023-07-08T04:51:35;3.00;;;1.80;;
78382;SDS011;67668;52.294;4.692;2023-07-08T04:54:01;3.50;;;2.13;;
78382;SDS011;67668;52.294;4.692;2023-07-08T04:56:34;4.00;;;2.05;;
78382;SDS011;67668;52.294;4.692;2023-07-08T04:59:02;4.28;;;2.38;;
78382;SDS011;67668;52.294;4.692;2023-07-08T05:01:28;4.05;;;2.28;;
78382;SDS011;67668;52.294;4.692;2023-07-08T05:03:53;3.83;;;2.55;;
78382;SDS011;67668;52.294;4.692;2023-07-08T05:06:20;3.95;;;2.20;;
78382;SDS011;67668;52.294;4.692;2023-07-08T05:08:45;4.80;;;2.08;;
78382;SDS011;67668;52.294;4.692;2023-07-08T05:11:10;5.95;;;2.47;;
78382;SDS011;67668;52.294;4.692;2023-07-08T05:13:36;5.10;;;1.88;;
78382;SDS011;67668;52.294;4.692;2023-07-08T05:16:01;3.35;;;2.00;;
78382;SDS011;67668;52.294;4.692;2023-07-08T05:18:27;4.20;;;2.22;;
78382;SDS011;67668;52.294;4.692;2023-07-08T05:20:52;5.32;;;2.40;;
78382;SDS011;67668;52.294;4.692;2023-07-08T05:23:19;4.05;;;1.85;;
78382;SDS011;67668;52.294;4.692;2023-07-08T05:25:45;7.43;;;2.50;;
78382;SDS011;67668;52.294;4.692;2023-07-08T05:28:11;6.30;;;2.25;;
78382;SDS011;67668;52.294;4.692;2023-07-08T05:30:39;5.22;;;1.98;;
78382;SDS011;67668;52.294;4.692;2023-07-08T05:33:05;4.93;;;2.10;;
78382;SDS011;67668;52.294;4.692;2023-07-08T05:35:30;6.20;;;2.33;;
78382;SDS011;67668;52.294;4.692;2023-07-08T05:37:57;5.55;;;2.30;;
78382;SDS011;67668;52.294;4.692;2023-07-08T05:40:23;6.90;;;2.38;;
78382;SDS011;67668;52.294;4.692;2023-07-08T05:42:49;5.38;;;1.90;;
78382;SDS011;67668;52.294;4.692;2023-07-08T05:45:14;3.80;;;2.40;;
78382;SDS011;67668;52.294;4.692;2023-07-08T05:47:40;5.82;;;2.10;;
78382;SDS011;67668;52.294;4.692;2023-07-08T05:50:05;4.25;;;2.17;;
78382;SDS011;67668;52.294;4.692;2023-07-08T05:52:31;3.22;;;2.20;;
78382;SDS011;67668;52.294;4.692;2023-07-08T05:54:57;4.57;;;2.05;;
78382;SDS011;67668;52.294;4.692;2023-07-08T05:57:22;3.22;;;1.77;;
78382;SDS011;67668;52.294;4.692;2023-07-08T05:59:50;5.07;;;1.73;;
78382;SDS011;67668;52.294;4.692;2023-07-08T06:02:16;4.30;;;2.00;;
78382;SDS011;67668;52.294;4.692;2023-07-08T06:04:42;4.57;;;2.10;;
78382;SDS011;67668;52.294;4.692;2023-07-08T06:07:07;4.57;;;2.20;;
78382;SDS011;67668;52.294;4.692;2023-07-08T06:09:33;4.95;;;2.05;;
78382;SDS011;67668;52.294;4.692;2023-07-08T06:11:58;4.50;;;2.28;;
78382;SDS011;67668;52.294;4.692;2023-07-08T06:14:24;3.17;;;2.05;;
78382;SDS011;67668;52.294;4.692;2023-07-08T06:16:49;4.83;;;2.20;;
78382;SDS011;67668;52.294;4.692;2023-07-08T06:19:15;3.08;;;1.77;;
78382;SDS011;67668;52.294;4.692;2023-07-08T06:21:42;4.25;;;2.53;;
78382;SDS011;67668;52.294;4.692;2023-07-08T06:24:08;4.32;;;2.50;;
78382;SDS011;67668;52.294;4.692;2023-07-08T06:26:33;4.97;;;2.58;;
78382;SDS011;67668;52.294;4.692;2023-07-08T06:28:59;5.50;;;1.85;;
78382;SDS011;67668;52.294;4.692;2023-07-08T06:31:24;4.43;;;2.35;;
78382;SDS011;67668;52.294;4.692;2023-07-08T06:33:50;5.95;;;2.10;;
78382;SDS011;67668;52.294;4.692;2023-07-08T06:36:15;3.33;;;2.13;;
78382;SDS011;67668;52.294;4.692;2023-07-08T06:38:41;5.32;;;2.33;;
78382;SDS011;67668;52.294;4.692;2023-07-08T06:41:06;4.82;;;2.22;;
78382;SDS011;67668;52.294;4.692;2023-07-08T06:43:32;5.63;;;2.10;;
78382;SDS011;67668;52.294;4.692;2023-07-08T06:45:57;4.30;;;2.13;;
78382;SDS011;67668;52.294;4.692;2023-07-08T06:48:23;3.67;;;2.30;;
78382;SDS011;67668;52.294;4.692;2023-07-08T06:50:50;5.50;;;1.90;;
78382;SDS011;67668;52.294;4.692;2023-07-08T06:53:15;4.78;;;2.63;;
78382;SDS011;67668;52.294;4.692;2023-07-08T06:55:43;5.38;;;2.08;;
78382;SDS011;67668;52.294;4.692;2023-07-08T06:58:09;4.45;;;2.13;;
78382;SDS011;67668;52.294;4.692;2023-07-08T07:00:35;5.25;;;2.25;;
78382;SDS011;67668;52.294;4.692;2023-07-08T07:03:00;6.55;;;2.50;;
78382;SDS011;67668;52.294;4.692;2023-07-08T07:05:26;4.07;;;2.20;;
78382;SDS011;67668;52.294;4.692;2023-07-08T07:07:51;4.30;;;1.83;;
78382;SDS011;67668;52.294;4.692;2023-07-08T07:10:17;6.10;;;2.50;;
78382;SDS011;67668;52.294;4.692;2023-07-08T07:12:43;6.70;;;2.25;;
78382;SDS011;67668;52.294;4.692;2023-07-08T07:15:09;4.00;;;2.00;;
78382;SDS011;67668;52.294;4.692;2023-07-08T07:17:34;4.35;;;2.42;;
78382;SDS011;67668;52.294;4.692;2023-07-08T07:20:01;6.20;;;2.20;;
78382;SDS011;67668;52.294;4.692;2023-07-08T07:22:27;7.63;;;2.30;;
78382;SDS011;67668;52.294;4.692;2023-07-08T07:24:53;4.88;;;2.13;;
78382;SDS011;67668;52.294;4.692;2023-07-08T07:27:21;7.45;;;2.00;;
78382;SDS011;67668;52.294;4.692;2023-07-08T07:29:47;6.97;;;2.50;;
78382;SDS011;67668;52.294;4.692;2023-07-08T07:32:14;4.43;;;2.63;;
78382;SDS011;67668;52.294;4.692;2023-07-08T07:34:41;7.45;;;2.58;;
78382;SDS011;67668;52.294;4.692;2023-07-08T07:37:13;6.18;;;2.28;;
78382;SDS011;67668;52.294;4.692;2023-07-08T07:39:40;8.57;;;2.50;;
78382;SDS011;67668;52.294;4.692;2023-07-08T07:42:06;4.63;;;2.55;;
78382;SDS011;67668;52.294;4.692;2023-07-08T07:44:32;7.43;;;2.42;;
78382;SDS011;67668;52.294;4.692;2023-07-08T07:46:58;3.88;;;1.60;;
78382;SDS011;67668;52.294;4.692;2023-07-08T07:49:23;4.22;;;2.10;;
78382;SDS011;67668;52.294;4.692;2023-07-08T07:51:49;4.22;;;2.42;;
78382;SDS011;67668;52.294;4.692;2023-07-08T07:54:14;4.38;;;2.28;;
78382;SDS011;67668;52.294;4.692;2023-07-08T07:56:40;6.40;;;2.50;;
78382;SDS011;67668;52.294;4.692;2023-07-08T07:59:06;3.55;;;2.25;;
78382;SDS011;67668;52.294;4.692;2023-07-08T08:01:31;4.40;;;2.17;;
78382;SDS011;67668;52.294;4.692;2023-07-08T08:03:57;3.10;;;2.08;;
78382;SDS011;67668;52.294;4.692;2023-07-08T08:06:22;3.90;;;2.30;;
78382;SDS011;67668;52.294;4.692;2023-07-08T08:08:48;4.13;;;2.33;;
78382;SDS011;67668;52.294;4.692;2023-07-08T08:11:14;5.43;;;2.28;;
78382;SDS011;67668;52.294;4.692;2023-07-08T08:13:40;4.85;;;2.65;;
78382;SDS011;67668;52.294;4.692;2023-07-08T08:16:05;4.47;;;2.40;;
78382;SDS011;67668;52.294;4.692;2023-07-08T08:18:30;6.18;;;2.50;;
78382;SDS011;67668;52.294;4.692;2023-07-08T08:20:56;4.93;;;2.80;;
78382;SDS011;67668;52.294;4.692;2023-07-08T08:23:22;4.20;;;2.08;;
78382;SDS011;67668;52.294;4.692;2023-07-08T08:25:47;5.18;;;3.25;;
78382;SDS011;67668;52.294;4.692;2023-07-08T08:28:13;4.60;;;2.63;;
78382;SDS011;67668;52.294;4.692;2023-07-08T08:30:38;6.38;;;2.53;;
78382;SDS011;67668;52.294;4.692;2023-07-08T08:33:04;5.15;;;2.28;;
78382;SDS011;67668;52.294;4.692;2023-07-08T08:35:29;4.82;;;2.80;;
78382;SDS011;67668;52.294;4.692;2023-07-08T08:37:54;4.55;;;2.72;;
78382;SDS011;67668;52.294;4.692;2023-07-08T08:40:20;5.00;;;2.60;;
78382;SDS011;67668;52.294;4.692;2023-07-08T08:42:53;5.50;;;3.30;;
78382;SDS011;67668;52.294;4.692;2023-07-08T08:45:25;3.83;;;2.63;;
78382;SDS011;67668;52.294;4.692;2023-07-08T08:48:04;7.30;;;2.85;;
78382;SDS011;67668;52.294;4.692;2023-07-08T08:50:39;5.30;;;2.95;;
78382;SDS011;67668;52.294;4.692;2023-07-08T08:53:13;4.22;;;2.80;;
78382;SDS011;67668;52.294;4.692;2023-07-08T08:55:42;5.03;;;2.72;;
78382;SDS011;67668;52.294;4.692;2023-07-08T09:00:51;4.47;;;3.00;;
78382;SDS011;67668;52.294;4.692;2023-07-08T09:08:49;4.88;;;3.17;;
78382;SDS011;67668;52.294;4.692;2023-07-08T09:14:22;4.72;;;3.25;;
78382;SDS011;67668;52.294;4.692;2023-07-08T09:16:54;3.65;;;2.85;;
78382;SDS011;67668;52.294;4.692;2023-07-08T09:19:25;5.32;;;3.33;;
78382;SDS011;67668;52.294;4.692;2023-07-08T09:27:35;5.18;;;3.30;;
78382;SDS011;67668;52.294;4.692;2023-07-08T09:30:01;6.30;;;3.40;;
78382;SDS011;67668;52.294;4.692;2023-07-08T09:32:28;4.72;;;3.08;;
78382;SDS011;67668;52.294;4.692;2023-07-08T09:35:02;8.75;;;3.55;;
78382;SDS011;67668;52.294;4.692;2023-07-08T09:37:31;5.45;;;3.40;;
78382;SDS011;67668;52.294;4.692;2023-07-08T09:39:59;5.90;;;3.60;;
78382;SDS011;67668;52.294;4.692;2023-07-08T09:42:32;8.43;;;3.40;;
78382;SDS011;67668;52.294;4.692;2023-07-08T09:45:08;6.63;;;3.22;;
78382;SDS011;67668;52.294;4.692;2023-07-08T09:47:37;5.28;;;3.55;;
78382;SDS011;67668;52.294;4.692;2023-07-08T09:50:27;5.38;;;2.85;;
78382;SDS011;67668;52.294;4.692;2023-07-08T09:52:53;4.03;;;2.97;;
78382;SDS011;67668;52.294;4.692;2023-07-08T09:55:20;4.00;;;3.28;;
78382;SDS011;67668;52.294;4.692;2023-07-08T09:57:47;5.93;;;3.42;;
78382;SDS011;67668;52.294;4.692;2023-07-08T10:00:18;7.22;;;3.85;;
78382;SDS011;67668;52.294;4.692;2023-07-08T10:02:55;5.20;;;3.90;;
78382;SDS011;67668;52.294;4.692;2023-07-08T10:05:23;4.93;;;3.10;;
78382;SDS011;67668;52.294;4.692;2023-07-08T10:07:54;4.95;;;3.13;;
78382;SDS011;67668;52.294;4.692;2023-07-08T10:10:34;9.55;;;3.85;;
78382;SDS011;67668;52.294;4.692;2023-07-08T10:16:23;6.05;;;3.72;;
78382;SDS011;67668;52.294;4.692;2023-07-08T10:18:51;8.10;;;4.13;;
78382;SDS011;67668;52.294;4.692;2023-07-08T10:26:45;4.68;;;3.55;;
78382;SDS011;67668;52.294;4.692;2023-07-08T10:29:16;5.85;;;3.72;;
78382;SDS011;67668;52.294;4.692;2023-07-08T10:32:11;5.82;;;3.60;;
78382;SDS011;67668;52.294;4.692;2023-07-08T10:35:03;8.23;;;3.92;;
78382;SDS011;67668;52.294;4.692;2023-07-08T10:51:12;5.78;;;3.95;;
78382;SDS011;67668;52.294;4.692;2023-07-08T10:56:56;5.78;;;4.05;;
78382;SDS011;67668;52.294;4.692;2023-07-08T10:59:41;8.10;;;4.47;;
78382;SDS011;67668;52.294;4.692;2023-07-08T11:10:38;7.55;;;5.22;;
78382;SDS011;67668;52.294;4.692;2023-07-08T11:13:14;6.18;;;4.55;;
78382;SDS011;67668;52.294;4.692;2023-07-08T11:15:46;5.85;;;4.25;;
78382;SDS011;67668;52.294;4.692;2023-07-08T11:18:20;9.30;;;5.38;;
78382;SDS011;67668;52.294;4.692;2023-07-08T11:21:03;6.88;;;4.45;;
78382;SDS011;67668;52.294;4.692;2023-07-08T11:23:38;7.53;;;4.50;;
78382;SDS011;67668;52.294;4.692;2023-07-08T11:26:16;9.32;;;4.88;;
78382;SDS011;67668;52.294;4.692;2023-07-08T11:28:48;6.80;;;4.75;;
78382;SDS011;67668;52.294;4.692;2023-07-08T11:31:16;6.35;;;4.85;;
78382;SDS011;67668;52.294;4.692;2023-07-08T11:33:42;7.70;;;5.13;;
78382;SDS011;67668;52.294;4.692;2023-07-08T11:36:09;8.98;;;4.82;;
78382;SDS011;67668;52.294;4.692;2023-07-08T11:38:36;8.82;;;5.63;;
78382;SDS011;67668;52.294;4.692;2023-07-08T11:41:14;6.18;;;4.97;;
78382;SDS011;67668;52.294;4.692;2023-07-08T11:43:44;7.10;;;4.72;;
78382;SDS011;67668;52.294;4.692;2023-07-08T11:46:23;5.57;;;4.07;;
78382;SDS011;67668;52.294;4.692;2023-07-08T11:49:04;8.98;;;5.13;;
78382;SDS011;67668;52.294;4.692;2023-07-08T11:51:37;6.05;;;4.95;;
78382;SDS011;67668;52.294;4.692;2023-07-08T11:56:58;6.97;;;4.55;;
78382;SDS011;67668;52.294;4.692;2023-07-08T11:59:38;7.03;;;4.97;;
78382;SDS011;67668;52.294;4.692;2023-07-08T12:02:12;6.93;;;4.30;;
78382;SDS011;67668;52.294;4.692;2023-07-08T12:04:57;7.15;;;5.20;;
78382;SDS011;67668;52.294;4.692;2023-07-08T12:07:39;9.32;;;4.78;;
78382;SDS011;67668;52.294;4.692;2023-07-08T12:12:37;7.43;;;4.70;;
78382;SDS011;67668;52.294;4.692;2023-07-08T12:15:12;8.30;;;4.65;;
78382;SDS011;67668;52.294;4.692;2023-07-08T12:17:45;6.35;;;4.13;;
78382;SDS011;67668;52.294;4.692;2023-07-08T12:20:22;7.50;;;4.60;;
78382;SDS011;67668;52.294;4.692;2023-07-08T12:22:51;6.47;;;4.30;;
78382;SDS011;67668;52.294;4.692;2023-07-08T12:25:18;7.93;;;4.03;;
78382;SDS011;67668;52.294;4.692;2023-07-08T12:27:46;7.53;;;4.75;;
78382;SDS011;67668;52.294;4.692;2023-07-08T12:30:13;9.88;;;5.53;;
78382;SDS011;67668;52.294;4.692;2023-07-08T12:32:39;8.55;;;4.95;;
78382;SDS011;67668;52.294;4.692;2023-07-08T12:35:09;6.78;;;4.63;;
78382;SDS011;67668;52.294;4.692;2023-07-08T12:37:45;6.43;;;4.70;;
78382;SDS011;67668;52.294;4.692;2023-07-08T12:40:11;5.43;;;4.63;;
78382;SDS011;67668;52.294;4.692;2023-07-08T12:42:36;5.57;;;4.78;;
78382;SDS011;67668;52.294;4.692;2023-07-08T12:45:02;5.47;;;4.83;;
78382;SDS011;67668;52.294;4.692;2023-07-08T12:47:27;9.38;;;4.80;;
78382;SDS011;67668;52.294;4.692;2023-07-08T12:49:53;5.35;;;4.50;;
78382;SDS011;67668;52.294;4.692;2023-07-08T12:52:22;5.90;;;4.45;;
78382;SDS011;67668;52.294;4.692;2023-07-08T12:54:49;8.82;;;4.75;;
78382;SDS011;67668;52.294;4.692;2023-07-08T12:57:15;9.25;;;4.55;;
78382;SDS011;67668;52.294;4.692;2023-07-08T12:59:42;6.68;;;4.60;;
78382;SDS011;67668;52.294;4.692;2023-07-08T13:02:27;5.72;;;3.83;;
78382;SDS011;67668;52.294;4.692;2023-07-08T13:04:56;6.80;;;3.80;;
78382;SDS011;67668;52.294;4.692;2023-07-08T13:10:02;8.00;;;4.43;;
78382;SDS011;67668;52.294;4.692;2023-07-08T13:12:29;6.70;;;4.68;;
78382;SDS011;67668;52.294;4.692;2023-07-08T13:14:57;7.60;;;4.60;;
78382;SDS011;67668;52.294;4.692;2023-07-08T13:17:25;7.60;;;4.72;;
78382;SDS011;67668;52.294;4.692;2023-07-08T13:19:51;4.93;;;4.10;;
78382;SDS011;67668;52.294;4.692;2023-07-08T13:22:17;7.25;;;4.32;;
78382;SDS011;67668;52.294;4.692;2023-07-08T13:24:45;9.13;;;4.60;;
78382;SDS011;67668;52.294;4.692;2023-07-08T13:27:21;10.45;;;4.72;;
78382;SDS011;67668;52.294;4.692;2023-07-08T13:29:50;7.10;;;4.70;;
78382;SDS011;67668;52.294;4.692;2023-07-08T13:32:17;6.25;;;4.20;;
78382;SDS011;67668;52.294;4.692;2023-07-08T13:34:43;5.60;;;4.43;;
78382;SDS011;67668;52.294;4.692;2023-07-08T13:37:12;7.15;;;4.85;;
78382;SDS011;67668;52.294;4.692;2023-07-08T13:39:45;11.73;;;4.50;;
78382;SDS011;67668;52.294;4.692;2023-07-08T13:42:12;9.18;;;4.43;;
78382;SDS011;67668;52.294;4.692;2023-07-08T13:44:44;5.85;;;4.28;;
78382;SDS011;67668;52.294;4.692;2023-07-08T13:47:21;7.63;;;4.00;;
78382;SDS011;67668;52.294;4.692;2023-07-08T13:49:53;5.43;;;3.95;;
78382;SDS011;67668;52.294;4.692;2023-07-08T13:52:22;6.22;;;4.07;;
78382;SDS011;67668;52.294;4.692;2023-07-08T13:54:52;6.23;;;4.17;;
78382;SDS011;67668;52.294;4.692;2023-07-08T13:57:20;6.32;;;4.55;;
78382;SDS011;67668;52.294;4.692;2023-07-08T13:59:48;8.65;;;4.28;;
78382;SDS011;67668;52.294;4.692;2023-07-08T14:02:18;5.40;;;3.83;;
78382;SDS011;67668;52.294;4.692;2023-07-08T14:04:46;5.70;;;4.20;;
78382;SDS011;67668;52.294;4.692;2023-07-08T14:07:15;5.13;;;4.13;;
78382;SDS011;67668;52.294;4.692;2023-07-08T14:09:42;6.45;;;3.90;;
78382;SDS011;67668;52.294;4.692;2023-07-08T14:12:08;6.72;;;4.32;;
78382;SDS011;67668;52.294;4.692;2023-07-08T14:14:34;7.88;;;4.10;;
78382;SDS011;67668;52.294;4.692;2023-07-08T14:17:00;5.75;;;4.20;;
78382;SDS011;67668;52.294;4.692;2023-07-08T14:19:26;13.00;;;4.63;;
78382;SDS011;67668;52.294;4.692;2023-07-08T14:21:56;6.82;;;3.90;;
78382;SDS011;67668;52.294;4.692;2023-07-08T14:24:26;5.75;;;4.45;;
78382;SDS011;67668;52.294;4.692;2023-07-08T14:26:52;7.70;;;4.53;;
78382;SDS011;67668;52.294;4.692;2023-07-08T14:29:18;6.10;;;4.68;;
78382;SDS011;67668;52.294;4.692;2023-07-08T14:31:44;7.20;;;4.70;;
78382;SDS011;67668;52.294;4.692;2023-07-08T14:34:11;6.72;;;4.50;;
78382;SDS011;67668;52.294;4.692;2023-07-08T14:36:47;6.88;;;4.80;;
78382;SDS011;67668;52.294;4.692;2023-07-08T14:39:13;6.47;;;4.45;;
78382;SDS011;67668;52.294;4.692;2023-07-08T14:41:41;8.35;;;4.63;;
78382;SDS011;67668;52.294;4.692;2023-07-08T14:44:24;9.05;;;4.47;;
78382;SDS011;67668;52.294;4.692;2023-07-08T14:46:52;7.97;;;5.18;;
78382;SDS011;67668;52.294;4.692;2023-07-08T14:49:19;8.52;;;4.40;;
78382;SDS011;67668;52.294;4.692;2023-07-08T14:51:46;8.13;;;5.05;;
78382;SDS011;67668;52.294;4.692;2023-07-08T14:54:12;6.55;;;4.82;;
78382;SDS011;67668;52.294;4.692;2023-07-08T14:56:38;7.45;;;4.28;;
78382;SDS011;67668;52.294;4.692;2023-07-08T14:59:04;7.13;;;4.70;;
78382;SDS011;67668;52.294;4.692;2023-07-08T15:01:30;10.02;;;4.90;;
78382;SDS011;67668;52.294;4.692;2023-07-08T15:03:56;5.97;;;4.80;;
78382;SDS011;67668;52.294;4.692;2023-07-08T15:06:23;6.68;;;4.10;;
78382;SDS011;67668;52.294;4.692;2023-07-08T15:08:49;5.93;;;4.85;;
78382;SDS011;67668;52.294;4.692;2023-07-08T15:11:14;6.97;;;4.60;;
78382;SDS011;67668;52.294;4.692;2023-07-08T15:13:41;8.35;;;4.70;;
78382;SDS011;67668;52.294;4.692;2023-07-08T15:16:14;7.88;;;4.70;;
78382;SDS011;67668;52.294;4.692;2023-07-08T15:18:41;6.15;;;4.47;;
78382;SDS011;67668;52.294;4.692;2023-07-08T15:21:11;6.43;;;4.43;;
78382;SDS011;67668;52.294;4.692;2023-07-08T15:23:36;8.45;;;4.53;;
78382;SDS011;67668;52.294;4.692;2023-07-08T15:26:02;8.63;;;4.60;;
78382;SDS011;67668;52.294;4.692;2023-07-08T15:28:47;11.18;;;4.60;;
78382;SDS011;67668;52.294;4.692;2023-07-08T15:31:18;6.65;;;4.15;;
78382;SDS011;67668;52.294;4.692;2023-07-08T15:33:45;7.85;;;5.13;;
78382;SDS011;67668;52.294;4.692;2023-07-08T15:36:12;8.13;;;3.97;;
78382;SDS011;67668;52.294;4.692;2023-07-08T15:38:39;6.07;;;4.18;;
78382;SDS011;67668;52.294;4.692;2023-07-08T15:41:04;8.40;;;4.55;;
78382;SDS011;67668;52.294;4.692;2023-07-08T15:43:30;7.43;;;4.28;;
78382;SDS011;67668;52.294;4.692;2023-07-08T15:45:56;8.25;;;4.32;;
78382;SDS011;67668;52.294;4.692;2023-07-08T15:48:21;6.82;;;4.43;;
78382;SDS011;67668;52.294;4.692;2023-07-08T15:50:47;7.28;;;4.75;;
78382;SDS011;67668;52.294;4.692;2023-07-08T15:53:15;7.93;;;4.80;;
78382;SDS011;67668;52.294;4.692;2023-07-08T15:55:44;7.05;;;4.82;;
78382;SDS011;67668;52.294;4.692;2023-07-08T16:00:37;8.97;;;4.70;;
78382;SDS011;67668;52.294;4.692;2023-07-08T16:03:09;7.97;;;4.65;;
78382;SDS011;67668;52.294;4.692;2023-07-08T16:05:38;6.85;;;4.65;;
78382;SDS011;67668;52.294;4.692;2023-07-08T16:08:04;8.73;;;5.43;;